Terminal Aerodrome Forecast
Issued by NWS

Home | Current Version | Previous Version | Text Only | Print | Product List | Glossary On
Versions: 1 2 3 4 5 6 7 8 9 10 11 12 13 14 15 16
551
FTUS45 KABQ 271740
TAFGUP
TAF
KGUP 271740Z 2718/2818 23012G22KT P6SM SKC
     FM271900 24020G32KT P6SM FEW150
     FM280230 24011KT P6SM SKC
     FM280500 18006KT P6SM SKC
     FM281500 23011KT P6SM SKC
     FM281700 24015G25KT P6SM SKC=

USA.gov is the U.S. government's official web portal to all federal, state and local government web resources and services.